首页
METAR-TAF:

METAR-TAF

机场 :

羅蘭加洛斯機場

圣但尼, 留尼汪岛

纬度: 20-53S, 经度: 055-31E, 海拔: 21米

当前天气观测

该预报发布于15分钟前的11:30 UTC
风速6节,风向北转西北
温度 27°C
湿度 74%
气压 1014 hPa
能见度10公里或以上
少量云层高于1200英尺
散云层高于6600英尺

METAR: FMEE 191130Z AUTO 34006KT 9999 FEW012 SCT066 27/22 Q1014 TEMPO 4500 SHRA BKN014 SCT020TCU

时间: 15:45 (11:45 UTC)

预报

该预报发布于45分钟前的11:00 UTC
预报有效从19日的 12点(UTC)到 20日的 18点(UTC)
风速10节,风向北转西北
能见度10公里或以上
散云层高于2000英尺
多云层高于5000英尺
短暂存在
从 19日的 12点(UTC)到 20日的 12点(UTC)
能見度: 4000
多云层高于1400英尺
散云层高于2000英尺, 塔状积云.
阵雨
几率 40% :
短暂存在
从 19日的 18点(UTC)到 20日的 06点(UTC)
风速15节,风向多变,有时为25节阵风
能見度: 2000
散云层高于1500英尺, 积雨云.
雷暴, 雨

TAF: FMEE 191100Z 1912/2018 34010KT 9999 SCT020 BKN050 TEMPO 1912/2012 4000 SHRA BKN014 SCT020TCU PROB40 TEMPO 1918/2006 VRB15G25KT 2000 TSRA SCT015CB

超过4000个机场的气象观测和天气预报(METAR&TAF报告)。

可查询的气象台以黄色和红色小点在地图上表示。

将鼠标移到小点上方,可查看气象台名称。

然后点击查看天气观测和预报。

如需切换地图:点击带黑十字的绿色按钮放大地图;点击带横线的绿色按钮缩小地图;或者点击绿色箭头查看邻近地区的地图。


METAR-TAF: